This is the latest recevied weather packets stored in our database for station/object 9M4RBN-3. If no packets are shown the sender has not sent any weather packets the latest 10 day(s).
| Time | Temp. | Humidity | Pressure | Rain* | Wind** | Luminosity | Snow |
|---|---|---|---|---|---|---|---|
| 1777810896 | 25.56° C | 43% | 1014.4 hPa | - | - | - | - |
| 1777809996 | 26.11° C | 39% | 1014.2 hPa | - | - | - | - |
| 1777809096 | 26.67° C | 49% | 1014 hPa | - | - | - | - |
| 1777808196 | 27.22° C | 69% | 1014 hPa | - | - | - | - |
| 1777807296 | 26.11° C | 57% | 1014.1 hPa | - | - | - | - |
| 1777806396 | 26.11° C | 38% | 1014 hPa | - | - | - | - |
| 1777805496 | 26.67° C | 45% | 1013.7 hPa | - | - | - | - |
| 1777804596 | 26.67° C | 67% | 1013.2 hPa | - | - | - | - |
| 1777803695 | 26.11° C | 50% | 1012.9 hPa | - | - | - | - |
| 1777802795 | 25.56° C | 36% | 1012.7 hPa | - | - | - | - |
| 1777801895 | 26.11° C | 36% | 1012.5 hPa | - | - | - | - |
| 1777800995 | 26.11° C | 37% | 1012.7 hPa | - | - | - | - |
| 1777800095 | 26.11° C | 38% | 1013 hPa | - | - | - | - |
| 1777799195 | 26.67° C | 41% | 1013.2 hPa | - | - | - | - |
| 1777798295 | 27.22° C | 47% | 1013.1 hPa | - | - | - | - |
| 1777797395 | 27.22° C | 48% | 1013.1 hPa | - | - | - | - |
| 1777796495 | 26.67° C | 50% | 1012.7 hPa | - | - | - | - |
| 1777795595 | 26.67° C | 51% | 1013.1 hPa | - | - | - | - |
| 1777794695 | 26.67° C | 51% | 1012.6 hPa | - | - | - | - |
| 1777793795 | 26.67° C | 51% | 1012.5 hPa | - | - | - | - |
| 1777792895 | 26.67° C | 52% | 1012.8 hPa | - | - | - | - |
| 1777791995 | 26.11° C | 52% | 1012.8 hPa | - | - | - | - |
| 1777791095 | 26.11° C | 53% | 1013.3 hPa | - | - | - | - |
| 1777790195 | 26.11° C | 54% | 1013.5 hPa | - | - | - | - |
| 1777789295 | 26.11° C | 53% | 1014 hPa | - | - | - | - |
* Rain since midnight (hover to see other rain measurements)
** Current wind speed in m/s (hover to see current wind gust speed)